sensor_id;sensor_type;location;lat;lon;timestamp;pressure;altitude;pressure_sealevel;temperature;humidity
41945;BME280;63122;52.424;13.458;2022-09-02T00:01:35;101498.09;;;18.74;48.03
41945;BME280;63122;52.424;13.458;2022-09-02T00:04:12;101498.59;;;18.62;48.13
41945;BME280;63122;52.424;13.458;2022-09-02T00:06:45;101503.34;;;18.67;47.98
41945;BME280;63122;52.424;13.458;2022-09-02T00:09:18;101500.13;;;18.71;48.52
41945;BME280;63122;52.424;13.458;2022-09-02T00:11:51;101502.53;;;18.66;48.14
41945;BME280;63122;52.424;13.458;2022-09-02T00:14:25;101495.53;;;18.50;48.52
41945;BME280;63122;52.424;13.458;2022-09-02T00:16:58;101492.75;;;18.44;48.49
41945;BME280;63122;52.424;13.458;2022-09-02T00:19:33;101491.22;;;18.49;48.78
41945;BME280;63122;52.424;13.458;2022-09-02T00:22:04;101488.28;;;18.44;48.80
41945;BME280;63122;52.424;13.458;2022-09-02T00:24:35;101491.28;;;18.41;49.31
41945;BME280;63122;52.424;13.458;2022-09-02T00:27:06;101485.22;;;18.47;48.92
41945;BME280;63122;52.424;13.458;2022-09-02T00:29:36;101493.13;;;18.40;48.78
41945;BME280;63122;52.424;13.458;2022-09-02T00:32:06;101492.03;;;18.35;48.88
41945;BME280;63122;52.424;13.458;2022-09-02T00:34:39;101485.75;;;18.42;48.94
41945;BME280;63122;52.424;13.458;2022-09-02T00:37:10;101483.84;;;18.51;48.60
41945;BME280;63122;52.424;13.458;2022-09-02T00:39:40;101477.56;;;18.59;49.00
41945;BME280;63122;52.424;13.458;2022-09-02T00:42:10;101481.72;;;18.62;48.56
41945;BME280;63122;52.424;13.458;2022-09-02T00:44:41;101481.34;;;18.65;48.70
41945;BME280;63122;52.424;13.458;2022-09-02T00:47:11;101476.94;;;18.72;48.54
41945;BME280;63122;52.424;13.458;2022-09-02T00:49:46;101483.81;;;18.81;48.14
41945;BME280;63122;52.424;13.458;2022-09-02T00:52:21;101481.22;;;18.88;48.01
41945;BME280;63122;52.424;13.458;2022-09-02T00:54:53;101470.97;;;18.92;48.23
41945;BME280;63122;52.424;13.458;2022-09-02T00:57:29;101477.59;;;18.96;47.81
41945;BME280;63122;52.424;13.458;2022-09-02T01:00:07;101477.59;;;18.96;47.93
41945;BME280;63122;52.424;13.458;2022-09-02T01:02:40;101479.25;;;18.97;47.63
41945;BME280;63122;52.424;13.458;2022-09-02T01:05:14;101476.06;;;19.02;47.66
41945;BME280;63122;52.424;13.458;2022-09-02T01:07:45;101475.88;;;19.03;47.51
41945;BME280;63122;52.424;13.458;2022-09-02T01:10:20;101470.06;;;18.99;47.56
41945;BME280;63122;52.424;13.458;2022-09-02T01:12:54;101471.34;;;19.04;47.69
41945;BME280;63122;52.424;13.458;2022-09-02T01:15:25;101467.91;;;18.95;47.26
41945;BME280;63122;52.424;13.458;2022-09-02T01:17:57;101469.53;;;18.89;48.18
41945;BME280;63122;52.424;13.458;2022-09-02T01:20:30;101466.47;;;18.92;48.08
41945;BME280;63122;52.424;13.458;2022-09-02T01:23:03;101470.81;;;18.93;47.84
41945;BME280;63122;52.424;13.458;2022-09-02T01:25:34;101468.88;;;19.02;48.23
41945;BME280;63122;52.424;13.458;2022-09-02T01:28:07;101460.22;;;19.00;47.69
41945;BME280;63122;52.424;13.458;2022-09-02T01:30:39;101461.38;;;18.97;47.67
41945;BME280;63122;52.424;13.458;2022-09-02T01:33:10;101462.50;;;19.03;47.88
41945;BME280;63122;52.424;13.458;2022-09-02T01:35:40;101465.38;;;19.02;47.46
41945;BME280;63122;52.424;13.458;2022-09-02T01:38:13;101459.63;;;19.05;47.51
41945;BME280;63122;52.424;13.458;2022-09-02T01:40:43;101459.00;;;19.03;47.93
41945;BME280;63122;52.424;13.458;2022-09-02T01:43:17;101459.25;;;19.08;47.87
41945;BME280;63122;52.424;13.458;2022-09-02T01:45:49;101458.44;;;19.07;47.89
41945;BME280;63122;52.424;13.458;2022-09-02T01:48:21;101455.13;;;19.05;47.76
41945;BME280;63122;52.424;13.458;2022-09-02T01:50:53;101464.56;;;19.01;47.65
41945;BME280;63122;52.424;13.458;2022-09-02T01:53:27;101459.84;;;19.03;48.41
41945;BME280;63122;52.424;13.458;2022-09-02T01:55:58;101457.88;;;18.97;47.88
41945;BME280;63122;52.424;13.458;2022-09-02T01:58:28;101459.38;;;18.84;47.70
41945;BME280;63122;52.424;13.458;2022-09-02T02:00:58;101463.34;;;18.74;48.01
41945;BME280;63122;52.424;13.458;2022-09-02T02:03:30;101462.47;;;18.66;48.73
41945;BME280;63122;52.424;13.458;2022-09-02T02:06:00;101463.56;;;18.57;48.21
41945;BME280;63122;52.424;13.458;2022-09-02T02:08:33;101458.22;;;18.42;49.03
41945;BME280;63122;52.424;13.458;2022-09-02T02:11:05;101454.34;;;18.30;49.13
41945;BME280;63122;52.424;13.458;2022-09-02T02:13:36;101457.03;;;18.15;49.55
41945;BME280;63122;52.424;13.458;2022-09-02T02:16:06;101454.88;;;18.10;49.43
41945;BME280;63122;52.424;13.458;2022-09-02T02:18:36;101448.84;;;17.93;50.72
41945;BME280;63122;52.424;13.458;2022-09-02T02:21:06;101455.44;;;17.82;50.72
41945;BME280;63122;52.424;13.458;2022-09-02T02:23:39;101449.47;;;17.80;50.71
41945;BME280;63122;52.424;13.458;2022-09-02T02:26:09;101462.63;;;17.81;51.00
41945;BME280;63122;52.424;13.458;2022-09-02T02:28:39;101452.72;;;17.90;51.33
41945;BME280;63122;52.424;13.458;2022-09-02T02:31:09;101452.72;;;17.90;50.50
41945;BME280;63122;52.424;13.458;2022-09-02T02:33:39;101442.59;;;17.85;50.66
41945;BME280;63122;52.424;13.458;2022-09-02T02:36:10;101448.75;;;17.86;51.23
41945;BME280;63122;52.424;13.458;2022-09-02T02:38:43;101449.09;;;17.83;50.69
41945;BME280;63122;52.424;13.458;2022-09-02T02:41:13;101448.00;;;17.77;51.73
41945;BME280;63122;52.424;13.458;2022-09-02T02:43:43;101449.38;;;17.73;50.86
41945;BME280;63122;52.424;13.458;2022-09-02T02:46:14;101445.94;;;17.64;51.53
41945;BME280;63122;52.424;13.458;2022-09-02T02:48:45;101450.00;;;17.60;51.68
41945;BME280;63122;52.424;13.458;2022-09-02T02:51:15;101453.34;;;17.54;52.13
41945;BME280;63122;52.424;13.458;2022-09-02T02:53:48;101446.31;;;17.61;51.39
41945;BME280;63122;52.424;13.458;2022-09-02T02:56:24;101442.88;;;17.52;51.58
41945;BME280;63122;52.424;13.458;2022-09-02T02:58:55;101445.19;;;17.55;51.67
41945;BME280;63122;52.424;13.458;2022-09-02T03:01:27;101447.84;;;17.55;52.32
41945;BME280;63122;52.424;13.458;2022-09-02T03:03:57;101442.44;;;17.64;51.72
41945;BME280;63122;52.424;13.458;2022-09-02T03:06:28;101444.66;;;17.60;51.81
41945;BME280;63122;52.424;13.458;2022-09-02T03:09:00;101442.69;;;17.54;51.91
41945;BME280;63122;52.424;13.458;2022-09-02T03:11:31;101442.69;;;17.54;51.70
41945;BME280;63122;52.424;13.458;2022-09-02T03:14:01;101441.56;;;17.48;52.29
41945;BME280;63122;52.424;13.458;2022-09-02T03:16:33;101440.09;;;17.46;52.03
41945;BME280;63122;52.424;13.458;2022-09-02T03:19:03;101432.59;;;17.41;52.04
41945;BME280;63122;52.424;13.458;2022-09-02T03:21:33;101441.16;;;17.36;52.33
41945;BME280;63122;52.424;13.458;2022-09-02T03:24:08;101438.31;;;17.38;52.07
41945;BME280;63122;52.424;13.458;2022-09-02T03:26:40;101434.91;;;17.44;52.43
41945;BME280;63122;52.424;13.458;2022-09-02T03:29:10;101433.31;;;17.35;52.44
41945;BME280;63122;52.424;13.458;2022-09-02T03:31:40;101433.81;;;17.38;52.36
41945;BME280;63122;52.424;13.458;2022-09-02T03:34:10;101438.53;;;17.28;52.69
41945;BME280;63122;52.424;13.458;2022-09-02T03:36:41;101437.28;;;17.16;52.74
41945;BME280;63122;52.424;13.458;2022-09-02T03:39:14;101436.00;;;17.11;53.04
41945;BME280;63122;52.424;13.458;2022-09-02T03:41:46;101437.81;;;17.11;53.13
41945;BME280;63122;52.424;13.458;2022-09-02T03:44:16;101431.19;;;17.07;52.92
41945;BME280;63122;52.424;13.458;2022-09-02T03:46:46;101429.81;;;17.11;53.26
41945;BME280;63122;52.424;13.458;2022-09-02T03:49:16;101430.94;;;17.17;52.95
41945;BME280;63122;52.424;13.458;2022-09-02T03:51:46;101427.50;;;17.08;53.04
41945;BME280;63122;52.424;13.458;2022-09-02T03:54:19;101424.03;;;17.07;53.04
41945;BME280;63122;52.424;13.458;2022-09-02T03:56:49;101424.84;;;17.08;52.60
41945;BME280;63122;52.424;13.458;2022-09-02T03:59:20;101430.38;;;16.98;53.10
41945;BME280;63122;52.424;13.458;2022-09-02T04:01:50;101433.56;;;16.93;53.36
41945;BME280;63122;52.424;13.458;2022-09-02T04:04:22;101438.06;;;16.93;53.73
41945;BME280;63122;52.424;13.458;2022-09-02T04:06:51;101435.59;;;16.91;53.59
41945;BME280;63122;52.424;13.458;2022-09-02T04:09:24;101432.72;;;16.93;53.37
41945;BME280;63122;52.424;13.458;2022-09-02T04:11:54;101430.47;;;16.81;53.64
41945;BME280;63122;52.424;13.458;2022-09-02T04:14:24;101438.28;;;16.83;53.57
41945;BME280;63122;52.424;13.458;2022-09-02T04:16:55;101438.56;;;16.88;53.66
41945;BME280;63122;52.424;13.458;2022-09-02T04:19:25;101441.22;;;16.88;53.21
41945;BME280;63122;52.424;13.458;2022-09-02T04:21:55;101434.66;;;16.76;54.41
41945;BME280;63122;52.424;13.458;2022-09-02T04:24:28;101443.69;;;16.66;54.31
41945;BME280;63122;52.424;13.458;2022-09-02T04:26:58;101440.03;;;16.59;54.80
41945;BME280;63122;52.424;13.458;2022-09-02T04:29:30;101447.50;;;16.64;54.63
41945;BME280;63122;52.424;13.458;2022-09-02T04:32:00;101439.38;;;16.57;54.98
41945;BME280;63122;52.424;13.458;2022-09-02T04:34:30;101441.94;;;16.50;54.46
41945;BME280;63122;52.424;13.458;2022-09-02T04:37:00;101448.56;;;16.46;54.95
41945;BME280;63122;52.424;13.458;2022-09-02T04:39:33;101441.06;;;16.50;54.75
41945;BME280;63122;52.424;13.458;2022-09-02T04:42:03;101444.41;;;16.52;54.46
41945;BME280;63122;52.424;13.458;2022-09-02T04:44:33;101435.28;;;16.38;55.38
41945;BME280;63122;52.424;13.458;2022-09-02T04:47:04;101439.00;;;16.29;55.25
41945;BME280;63122;52.424;13.458;2022-09-02T04:49:34;101436.63;;;16.34;55.62
41945;BME280;63122;52.424;13.458;2022-09-02T04:52:03;101435.28;;;16.38;55.53
41945;BME280;63122;52.424;13.458;2022-09-02T04:54:37;101436.91;;;16.55;55.09
41945;BME280;63122;52.424;13.458;2022-09-02T04:57:07;101435.09;;;16.48;55.69
41945;BME280;63122;52.424;13.458;2022-09-02T04:59:37;101439.75;;;16.46;55.19
41945;BME280;63122;52.424;13.458;2022-09-02T05:02:08;101436.59;;;16.50;55.03
41945;BME280;63122;52.424;13.458;2022-09-02T05:04:38;101448.25;;;16.49;55.23
41945;BME280;63122;52.424;13.458;2022-09-02T05:07:08;101452.38;;;16.52;55.10
41945;BME280;63122;52.424;13.458;2022-09-02T05:09:41;101441.72;;;16.52;55.30
41945;BME280;63122;52.424;13.458;2022-09-02T05:12:12;101449.03;;;16.58;55.23
41945;BME280;63122;52.424;13.458;2022-09-02T05:14:42;101445.91;;;16.54;55.09
41945;BME280;63122;52.424;13.458;2022-09-02T05:17:14;101447.88;;;16.61;55.02
41945;BME280;63122;52.424;13.458;2022-09-02T05:19:45;101449.69;;;16.60;54.79
41945;BME280;63122;52.424;13.458;2022-09-02T05:22:15;101458.53;;;16.61;55.13
41945;BME280;63122;52.424;13.458;2022-09-02T05:24:48;101461.16;;;16.69;55.07
41945;BME280;63122;52.424;13.458;2022-09-02T05:27:18;101461.44;;;16.74;55.02
41945;BME280;63122;52.424;13.458;2022-09-02T05:29:54;101451.78;;;16.81;55.20
41945;BME280;63122;52.424;13.458;2022-09-02T05:32:25;101452.09;;;16.87;54.59
41945;BME280;63122;52.424;13.458;2022-09-02T05:35:00;101457.91;;;16.90;54.46
41945;BME280;63122;52.424;13.458;2022-09-02T05:37:30;101458.72;;;16.91;55.00
41945;BME280;63122;52.424;13.458;2022-09-02T05:40:04;101463.34;;;16.97;54.82
41945;BME280;63122;52.424;13.458;2022-09-02T05:42:34;101456.16;;;17.06;54.09
41945;BME280;63122;52.424;13.458;2022-09-02T05:45:06;101454.22;;;17.00;54.31
41945;BME280;63122;52.424;13.458;2022-09-02T05:47:36;101452.69;;;16.97;54.70
41945;BME280;63122;52.424;13.458;2022-09-02T05:50:07;101452.50;;;17.07;55.24
41945;BME280;63122;52.424;13.458;2022-09-02T05:52:40;101455.47;;;17.12;54.57
41945;BME280;63122;52.424;13.458;2022-09-02T05:55:12;101454.44;;;17.21;55.48
41945;BME280;63122;52.424;13.458;2022-09-02T05:57:43;101456.75;;;17.24;54.30
41945;BME280;63122;52.424;13.458;2022-09-02T06:00:14;101450.75;;;17.22;54.08
41945;BME280;63122;52.424;13.458;2022-09-02T06:02:44;101458.19;;;17.27;53.89
41945;BME280;63122;52.424;13.458;2022-09-02T06:05:14;101458.53;;;17.32;53.58
41945;BME280;63122;52.424;13.458;2022-09-02T06:07:45;101452.50;;;17.30;53.82
41945;BME280;63122;52.424;13.458;2022-09-02T06:10:18;101453.19;;;17.32;54.02
41945;BME280;63122;52.424;13.458;2022-09-02T06:12:48;101456.31;;;17.36;53.79
41945;BME280;63122;52.424;13.458;2022-09-02T06:15:18;101455.78;;;17.40;54.03
41945;BME280;63122;52.424;13.458;2022-09-02T06:17:48;101453.59;;;17.44;53.58
41945;BME280;63122;52.424;13.458;2022-09-02T06:20:18;101452.03;;;17.50;53.53
41945;BME280;63122;52.424;13.458;2022-09-02T06:22:48;101454.91;;;17.48;53.80
41945;BME280;63122;52.424;13.458;2022-09-02T06:25:21;101453.34;;;17.54;53.61
41945;BME280;63122;52.424;13.458;2022-09-02T06:27:51;101451.16;;;17.58;53.72
41945;BME280;63122;52.424;13.458;2022-09-02T06:30:21;101457.88;;;17.53;53.94
41945;BME280;63122;52.424;13.458;2022-09-02T06:32:53;101457.03;;;17.53;53.81
41945;BME280;63122;52.424;13.458;2022-09-02T06:35:23;101453.47;;;17.61;53.85
41945;BME280;63122;52.424;13.458;2022-09-02T06:37:54;101454.59;;;17.66;54.78
41945;BME280;63122;52.424;13.458;2022-09-02T06:40:26;101456.06;;;17.69;54.54
41945;BME280;63122;52.424;13.458;2022-09-02T06:42:56;101451.22;;;17.73;54.21
41945;BME280;63122;52.424;13.458;2022-09-02T06:45:26;101451.22;;;17.73;53.93
41945;BME280;63122;52.424;13.458;2022-09-02T06:47:57;101456.47;;;17.81;53.90
41945;BME280;63122;52.424;13.458;2022-09-02T06:50:27;101453.78;;;17.81;53.54
41945;BME280;63122;52.424;13.458;2022-09-02T06:52:58;101460.44;;;17.85;53.73
41945;BME280;63122;52.424;13.458;2022-09-02T06:55:34;101453.38;;;17.92;53.27
41945;BME280;63122;52.424;13.458;2022-09-02T06:58:04;101458.63;;;18.01;53.70
41945;BME280;63122;52.424;13.458;2022-09-02T07:00:35;101459.53;;;17.93;53.62
41945;BME280;63122;52.424;13.458;2022-09-02T07:03:05;101456.63;;;18.03;53.82
41945;BME280;63122;52.424;13.458;2022-09-02T07:05:58;101456.91;;;18.08;53.34
41945;BME280;63122;52.424;13.458;2022-09-02T07:08:29;101455.47;;;18.20;52.81
41945;BME280;63122;52.424;13.458;2022-09-02T07:11:02;101456.94;;;18.23;53.11
41945;BME280;63122;52.424;13.458;2022-09-02T07:13:39;101462.47;;;18.21;53.21
41945;BME280;63122;52.424;13.458;2022-09-02T07:16:14;101462.75;;;18.26;53.30
41945;BME280;63122;52.424;13.458;2022-09-02T07:19:15;101464.31;;;18.36;52.84
41945;BME280;63122;52.424;13.458;2022-09-02T07:22:03;101462.19;;;18.31;52.35
41945;BME280;63122;52.424;13.458;2022-09-02T07:24:39;101462.19;;;18.31;53.29
41945;BME280;63122;52.424;13.458;2022-09-02T07:27:14;101463.94;;;18.39;52.88
41945;BME280;63122;52.424;13.458;2022-09-02T07:29:56;101459.91;;;18.43;53.29
41945;BME280;63122;52.424;13.458;2022-09-02T07:32:30;101458.22;;;18.57;52.87
41945;BME280;63122;52.424;13.458;2022-09-02T07:35:00;101451.84;;;18.73;51.91
41945;BME280;63122;52.424;13.458;2022-09-02T07:37:32;101460.97;;;18.64;51.74
41945;BME280;63122;52.424;13.458;2022-09-02T07:40:09;101457.94;;;18.67;51.74
41945;BME280;63122;52.424;13.458;2022-09-02T07:42:43;101450.75;;;18.67;51.24
41945;BME280;63122;52.424;13.458;2022-09-02T07:45:14;101461.44;;;18.67;51.99
41945;BME280;63122;52.424;13.458;2022-09-02T07:47:43;101462.22;;;18.83;52.18
41945;BME280;63122;52.424;13.458;2022-09-02T07:50:15;101461.22;;;18.84;52.02
41945;BME280;63122;52.424;13.458;2022-09-02T07:52:47;101462.78;;;18.93;51.61
41945;BME280;63122;52.424;13.458;2022-09-02T07:55:17;101471.19;;;19.05;51.85
41945;BME280;63122;52.424;13.458;2022-09-02T07:57:52;101467.63;;;19.20;51.55
41945;BME280;63122;52.424;13.458;2022-09-02T08:00:23;101468.47;;;19.20;51.18
41945;BME280;63122;52.424;13.458;2022-09-02T08:02:54;101466.84;;;19.26;51.41
41945;BME280;63122;52.424;13.458;2022-09-02T08:05:25;101465.91;;;19.34;51.49
41945;BME280;63122;52.424;13.458;2022-09-02T08:07:56;101466.28;;;19.52;51.13
41945;BME280;63122;52.424;13.458;2022-09-02T08:10:27;101461.97;;;19.51;49.39
41945;BME280;63122;52.424;13.458;2022-09-02T08:13:00;101467.38;;;19.58;50.56
41945;BME280;63122;52.424;13.458;2022-09-02T08:15:33;101464.97;;;19.63;50.32
41945;BME280;63122;52.424;13.458;2022-09-02T08:18:05;101464.81;;;19.71;50.05
41945;BME280;63122;52.424;13.458;2022-09-02T08:20:47;101463.69;;;19.88;49.58
41945;BME280;63122;52.424;13.458;2022-09-02T08:23:18;101469.06;;;19.88;49.47
41945;BME280;63122;52.424;13.458;2022-09-02T08:26:05;101460.28;;;19.94;49.66
41945;BME280;63122;52.424;13.458;2022-09-02T08:28:38;101458.66;;;19.99;49.51
41945;BME280;63122;52.424;13.458;2022-09-02T08:31:08;101466.53;;;20.08;49.50
41945;BME280;63122;52.424;13.458;2022-09-02T08:33:39;101464.94;;;20.13;49.98
41945;BME280;63122;52.424;13.458;2022-09-02T08:36:09;101458.66;;;20.28;49.85
41945;BME280;63122;52.424;13.458;2022-09-02T08:38:41;101454.00;;;20.43;49.22
41945;BME280;63122;52.424;13.458;2022-09-02T08:41:19;101449.13;;;20.61;47.79
41945;BME280;63122;52.424;13.458;2022-09-02T08:43:54;101454.47;;;20.61;47.87
41945;BME280;63122;52.424;13.458;2022-09-02T08:46:27;101451.88;;;20.74;47.13
41945;BME280;63122;52.424;13.458;2022-09-02T08:49:03;101446.75;;;20.79;46.83
41945;BME280;63122;52.424;13.458;2022-09-02T08:51:41;101455.06;;;20.91;46.44
41945;BME280;63122;52.424;13.458;2022-09-02T08:54:23;101449.72;;;21.05;45.38
41945;BME280;63122;52.424;13.458;2022-09-02T08:56:55;101450.75;;;21.04;46.18
41945;BME280;63122;52.424;13.458;2022-09-02T08:59:29;101449.75;;;21.18;46.83
41945;BME280;63122;52.424;13.458;2022-09-02T09:02:06;101442.34;;;21.34;45.36
41945;BME280;63122;52.424;13.458;2022-09-02T09:04:56;101444.19;;;21.47;43.72
41945;BME280;63122;52.424;13.458;2022-09-02T09:07:36;101442.75;;;21.57;43.48
41945;BME280;63122;52.424;13.458;2022-09-02T09:10:13;101433.91;;;21.64;42.57
41945;BME280;63122;52.424;13.458;2022-09-02T09:12:59;101428.97;;;21.74;42.93
41945;BME280;63122;52.424;13.458;2022-09-02T09:15:39;101434.94;;;21.90;42.27
41945;BME280;63122;52.424;13.458;2022-09-02T09:20:46;101426.81;;;22.17;41.41
41945;BME280;63122;52.424;13.458;2022-09-02T09:23:22;101431.56;;;22.28;40.79
41945;BME280;63122;52.424;13.458;2022-09-02T09:26:05;101425.72;;;22.51;39.85
41945;BME280;63122;52.424;13.458;2022-09-02T09:28:37;101431.84;;;22.65;39.30
41945;BME280;63122;52.424;13.458;2022-09-02T09:31:15;101429.94;;;22.72;40.06
41945;BME280;63122;52.424;13.458;2022-09-02T09:34:00;101425.69;;;22.97;38.67
41945;BME280;63122;52.424;13.458;2022-09-02T09:36:50;101420.28;;;23.04;39.75
41945;BME280;63122;52.424;13.458;2022-09-02T09:39:24;101418.91;;;23.26;38.59
41945;BME280;63122;52.424;13.458;2022-09-02T09:41:56;101413.63;;;23.38;38.05
41945;BME280;63122;52.424;13.458;2022-09-02T09:44:39;101409.44;;;23.42;37.84
41945;BME280;63122;52.424;13.458;2022-09-02T09:47:18;101416.16;;;23.58;37.56
41945;BME280;63122;52.424;13.458;2022-09-02T09:49:50;101405.94;;;23.67;37.33
41945;BME280;63122;52.424;13.458;2022-09-02T09:52:26;101417.84;;;23.78;36.70
41945;BME280;63122;52.424;13.458;2022-09-02T09:55:12;101404.03;;;23.93;35.74
41945;BME280;63122;52.424;13.458;2022-09-02T09:57:51;101410.16;;;23.82;36.67
41945;BME280;63122;52.424;13.458;2022-09-02T10:00:26;101407.00;;;23.85;35.30
41945;BME280;63122;52.424;13.458;2022-09-02T10:03:03;101402.78;;;23.70;36.35
41945;BME280;63122;52.424;13.458;2022-09-02T10:05:36;101400.38;;;23.62;36.61
41945;BME280;63122;52.424;13.458;2022-09-02T10:08:19;101397.41;;;23.70;35.19
41945;BME280;63122;52.424;13.458;2022-09-02T10:10:58;101385.75;;;23.77;34.56
41945;BME280;63122;52.424;13.458;2022-09-02T10:13:31;101401.69;;;23.78;34.21
41945;BME280;63122;52.424;13.458;2022-09-02T10:16:15;101397.84;;;23.67;34.61
41945;BME280;63122;52.424;13.458;2022-09-02T10:18:56;101395.03;;;23.81;35.24
41945;BME280;63122;52.424;13.458;2022-09-02T10:21:43;101388.16;;;23.85;35.13
41945;BME280;63122;52.424;13.458;2022-09-02T10:24:35;101395.53;;;24.15;34.08
41945;BME280;63122;52.424;13.458;2022-09-02T10:27:14;101391.78;;;24.16;34.66
41945;BME280;63122;52.424;13.458;2022-09-02T10:29:51;101386.59;;;24.14;34.85
41945;BME280;63122;52.424;13.458;2022-09-02T10:32:32;101388.19;;;24.22;34.87
41945;BME280;63122;52.424;13.458;2022-09-02T10:35:15;101377.31;;;24.48;33.66
41945;BME280;63122;52.424;13.458;2022-09-02T10:37:59;101373.31;;;24.50;33.16
41945;BME280;63122;52.424;13.458;2022-09-02T10:40:34;101371.00;;;24.54;33.55
41945;BME280;63122;52.424;13.458;2022-09-02T10:43:10;101372.81;;;24.72;33.58
41945;BME280;63122;52.424;13.458;2022-09-02T10:45:49;101368.22;;;25.03;34.10
41945;BME280;63122;52.424;13.458;2022-09-02T10:48:31;101366.50;;;25.21;33.76
41945;BME280;63122;52.424;13.458;2022-09-02T10:51:13;101370.03;;;25.33;31.37
41945;BME280;63122;52.424;13.458;2022-09-02T10:53:56;101368.78;;;25.48;29.60
41945;BME280;63122;52.424;13.458;2022-09-02T10:56:40;101369.31;;;25.26;30.01
41945;BME280;63122;52.424;13.458;2022-09-02T10:59:15;101365.66;;;25.08;30.80
41945;BME280;63122;52.424;13.458;2022-09-02T11:01:51;101364.63;;;25.21;31.59
41945;BME280;63122;52.424;13.458;2022-09-02T11:04:33;101369.81;;;25.35;32.12
41945;BME280;63122;52.424;13.458;2022-09-02T11:07:13;101367.44;;;25.38;31.79
41945;BME280;63122;52.424;13.458;2022-09-02T11:09:49;101367.34;;;25.45;31.18
41945;BME280;63122;52.424;13.458;2022-09-02T11:12:26;101371.34;;;25.42;31.49
41945;BME280;63122;52.424;13.458;2022-09-02T11:15:03;101365.81;;;25.37;31.10
41945;BME280;63122;52.424;13.458;2022-09-02T11:17:42;101355.47;;;25.34;31.90
41945;BME280;63122;52.424;13.458;2022-09-02T11:20:27;101362.91;;;25.63;31.97
41945;BME280;63122;52.424;13.458;2022-09-02T11:23:05;101360.19;;;25.75;31.78
41945;BME280;63122;52.424;13.458;2022-09-02T11:25:48;101357.13;;;25.83;30.80
41945;BME280;63122;52.424;13.458;2022-09-02T11:28:30;101355.59;;;25.87;31.32
41945;BME280;63122;52.424;13.458;2022-09-02T11:31:09;101353.38;;;25.84;31.01
41945;BME280;63122;52.424;13.458;2022-09-02T11:33:49;101356.19;;;25.77;30.13
41945;BME280;63122;52.424;13.458;2022-09-02T11:36:22;101346.28;;;25.95;29.79
41945;BME280;63122;52.424;13.458;2022-09-02T11:39:04;101346.53;;;26.34;29.49
41945;BME280;63122;52.424;13.458;2022-09-02T11:41:48;101349.56;;;26.50;28.89
41945;BME280;63122;52.424;13.458;2022-09-02T11:44:55;101350.84;;;26.47;29.17
41945;BME280;63122;52.424;13.458;2022-09-02T11:47:50;101348.97;;;26.48;29.39
41945;BME280;63122;52.424;13.458;2022-09-02T11:50:33;101339.84;;;26.37;29.07
41945;BME280;63122;52.424;13.458;2022-09-02T11:53:17;101347.16;;;26.24;29.09
41945;BME280;63122;52.424;13.458;2022-09-02T11:56:01;101348.22;;;26.23;29.38
41945;BME280;63122;52.424;13.458;2022-09-02T11:58:39;101346.28;;;26.48;28.51
41945;BME280;63122;52.424;13.458;2022-09-02T12:01:28;101343.56;;;26.48;26.43
41945;BME280;63122;52.424;13.458;2022-09-02T12:04:18;101345.13;;;26.43;26.77
41945;BME280;63122;52.424;13.458;2022-09-02T12:07:24;101336.00;;;26.79;26.94
41945;BME280;63122;52.424;13.458;2022-09-02T12:10:02;101330.41;;;26.68;26.69
41945;BME280;63122;52.424;13.458;2022-09-02T12:13:06;101333.25;;;26.91;27.38
41945;BME280;63122;52.424;13.458;2022-09-02T12:15:38;101311.59;;;27.47;26.17
41945;BME280;63122;52.424;13.458;2022-09-02T12:18:12;101316.50;;;27.67;26.66
41945;BME280;63122;52.424;13.458;2022-09-02T12:21:09;101313.72;;;28.07;26.09
41945;BME280;63122;52.424;13.458;2022-09-02T12:24:07;101304.50;;;28.30;25.62
41945;BME280;63122;52.424;13.458;2022-09-02T12:27:06;101315.06;;;28.26;24.94
41945;BME280;63122;52.424;13.458;2022-09-02T12:29:40;101308.34;;;28.12;25.79
41945;BME280;63122;52.424;13.458;2022-09-02T12:35:34;101302.44;;;28.42;25.42
41945;BME280;63122;52.424;13.458;2022-09-02T12:38:31;101289.63;;;28.65;24.68
41945;BME280;63122;52.424;13.458;2022-09-02T12:41:27;101286.88;;;28.93;23.77
41945;BME280;63122;52.424;13.458;2022-09-02T12:44:23;101285.25;;;28.92;23.94
41945;BME280;63122;52.424;13.458;2022-09-02T12:47:04;101287.91;;;28.86;23.86
41945;BME280;63122;52.424;13.458;2022-09-02T12:49:42;101284.81;;;28.72;22.96
41945;BME280;63122;52.424;13.458;2022-09-02T12:52:39;101279.19;;;28.52;22.91
41945;BME280;63122;52.424;13.458;2022-09-02T12:55:15;101284.38;;;28.26;24.03
41945;BME280;63122;52.424;13.458;2022-09-02T12:57:48;101273.28;;;28.05;23.87
41945;BME280;63122;52.424;13.458;2022-09-02T13:00:25;101281.50;;;27.88;24.64
41945;BME280;63122;52.424;13.458;2022-09-02T13:03:12;101283.03;;;27.79;24.94
41945;BME280;63122;52.424;13.458;2022-09-02T13:05:56;101278.38;;;27.74;25.07
41945;BME280;63122;52.424;13.458;2022-09-02T13:08:58;101278.44;;;27.79;25.30
41945;BME280;63122;52.424;13.458;2022-09-02T13:14:53;101267.75;;;27.67;25.47
41945;BME280;63122;52.424;13.458;2022-09-02T13:17:45;101266.34;;;27.65;25.48
41945;BME280;63122;52.424;13.458;2022-09-02T13:23:44;101259.47;;;27.79;25.30
41945;BME280;63122;52.424;13.458;2022-09-02T13:26:43;101266.78;;;27.79;25.06
41945;BME280;63122;52.424;13.458;2022-09-02T13:29:34;101258.03;;;27.99;25.12
41945;BME280;63122;52.424;13.458;2022-09-02T13:32:11;101256.22;;;28.32;24.96
41945;BME280;63122;52.424;13.458;2022-09-02T13:34:44;101252.22;;;28.72;24.36